createdAt,value
2018-02-01T00:00:41.958Z,6.69
2018-02-01T00:03:17.017Z,6.61
2018-02-01T00:05:49.521Z,6.58
2018-02-01T00:08:22.002Z,6.63
2018-02-01T00:10:54.499Z,6.59
2018-02-01T00:13:26.968Z,6.58
2018-02-01T00:15:59.468Z,6.54
2018-02-01T00:18:31.947Z,6.63
2018-02-01T00:21:04.453Z,6.54
2018-02-01T00:23:36.922Z,6.36
2018-02-01T00:26:09.411Z,6.27
2018-02-01T00:28:41.891Z,6.23
2018-02-01T00:31:14.401Z,6.27
2018-02-01T00:33:46.903Z,6.37
2018-02-01T00:36:19.492Z,6.24
2018-02-01T00:38:51.970Z,6.20
2018-02-01T00:41:24.467Z,6.13
2018-02-01T00:43:57.804Z,6.01
2018-02-01T00:46:30.310Z,6.09
2018-02-01T00:49:02.819Z,6.10
2018-02-01T00:51:35.313Z,6.06
2018-02-01T00:54:07.805Z,5.98
2018-02-01T00:56:40.306Z,5.96
2018-02-01T00:59:12.797Z,5.98
2018-02-01T01:01:45.290Z,5.96
2018-02-01T01:04:17.785Z,5.94
2018-02-01T01:06:50.309Z,5.94
2018-02-01T01:09:22.784Z,5.96
2018-02-01T01:11:55.288Z,5.96
2018-02-01T01:14:27.830Z,5.72
2018-02-01T01:17:00.338Z,5.81
2018-02-01T01:19:32.806Z,5.73
2018-02-01T01:22:05.299Z,5.72
2018-02-01T01:24:37.781Z,5.77
2018-02-01T01:27:10.325Z,5.77
2018-02-01T01:29:42.818Z,5.52
2018-02-01T01:32:15.315Z,5.56
2018-02-01T01:34:47.783Z,5.49
2018-02-01T01:37:20.304Z,5.50
2018-02-01T01:39:52.782Z,5.43
2018-02-01T01:42:25.415Z,5.47
2018-02-01T01:44:57.890Z,5.54
2018-02-01T01:47:30.395Z,5.61
2018-02-01T01:50:02.888Z,5.50
2018-02-01T01:52:35.401Z,5.33
2018-02-01T01:55:07.905Z,5.39
2018-02-01T01:57:40.423Z,5.30
2018-02-01T02:00:12.910Z,5.33
2018-02-01T02:02:45.485Z,5.33
2018-02-01T02:05:17.964Z,5.40
2018-02-01T02:07:50.455Z,5.37
2018-02-01T02:10:22.978Z,5.26
2018-02-01T02:12:57.611Z,5.24
2018-02-01T02:15:30.087Z,5.23
2018-02-01T02:18:02.623Z,5.26
2018-02-01T02:20:35.107Z,5.25
2018-02-01T02:23:07.644Z,5.24
2018-02-01T02:25:40.133Z,5.17
2018-02-01T02:28:13.134Z,5.21
2018-02-01T02:30:45.618Z,5.10
2018-02-01T02:33:18.135Z,5.08
2018-02-01T02:35:50.620Z,5.03
2018-02-01T02:38:23.117Z,5.09
2018-02-01T02:40:56.680Z,5.04
2018-02-01T02:43:29.215Z,5.01
2018-02-01T02:46:01.698Z,4.80
2018-02-01T02:48:34.248Z,4.83
2018-02-01T02:51:06.732Z,4.78
2018-02-01T02:53:39.232Z,4.85
2018-02-01T02:56:11.718Z,4.82
2018-02-01T02:58:44.223Z,4.96
2018-02-01T03:01:16.704Z,4.97
2018-02-01T03:03:49.223Z,5.00
2018-02-01T03:06:21.788Z,4.98
2018-02-01T03:08:54.322Z,4.90
2018-02-01T03:11:27.964Z,4.87
2018-02-01T03:14:00.471Z,4.85
2018-02-01T03:16:32.979Z,4.74
2018-02-01T03:19:05.462Z,4.72
2018-02-01T03:21:37.965Z,4.70
2018-02-01T03:24:10.453Z,4.67
2018-02-01T03:26:42.971Z,4.69
2018-02-01T03:29:15.439Z,4.72
2018-02-01T03:31:47.942Z,4.72
2018-02-01T03:34:20.425Z,4.68
2018-02-01T03:36:52.928Z,4.58
2018-02-01T03:39:27.524Z,4.41
2018-02-01T03:42:00.245Z,4.56
2018-02-01T03:44:32.741Z,4.37
2018-02-01T03:47:05.241Z,4.53
2018-02-01T03:49:37.735Z,4.48
2018-02-01T03:52:10.237Z,4.40
2018-02-01T03:54:43.671Z,4.52
2018-02-01T03:57:16.296Z,4.54
2018-02-01T03:59:48.782Z,4.53
2018-02-01T04:02:21.287Z,4.55
2018-02-01T04:04:53.786Z,4.50
2018-02-01T04:07:26.293Z,4.35
2018-02-01T04:09:58.772Z,4.23
2018-02-01T04:12:31.340Z,4.30
2018-02-01T04:15:03.858Z,4.40
2018-02-01T04:17:36.377Z,4.46
2018-02-01T04:20:08.862Z,4.40
2018-02-01T04:22:41.425Z,4.26
2018-02-01T04:25:13.908Z,4.13
2018-02-01T04:27:46.425Z,4.27
2018-02-01T04:30:18.903Z,4.32
2018-02-01T04:32:52.275Z,4.36
2018-02-01T04:35:24.756Z,4.39
2018-02-01T04:37:58.153Z,4.20
2018-02-01T04:40:30.645Z,4.19
2018-02-01T04:43:03.505Z,4.22
2018-02-01T04:45:35.990Z,4.30
2018-02-01T04:48:08.491Z,4.35
2018-02-01T04:50:40.974Z,4.25
2018-02-01T04:53:13.497Z,4.25
2018-02-01T04:55:45.985Z,4.23
2018-02-01T04:58:18.515Z,4.37
2018-02-01T05:00:50.995Z,4.24
2018-02-01T05:03:23.508Z,4.18
2018-02-01T05:05:58.459Z,4.18
2018-02-01T05:08:31.001Z,4.16
2018-02-01T05:11:03.503Z,4.22
2018-02-01T05:13:36.010Z,4.21
2018-02-01T05:16:08.515Z,4.35
2018-02-01T05:18:41.032Z,4.37
2018-02-01T05:21:13.535Z,4.33
2018-02-01T05:23:46.050Z,4.19
2018-02-01T05:26:18.532Z,4.13
2018-02-01T05:28:51.043Z,4.11
2018-02-01T05:31:23.529Z,4.22
2018-02-01T05:33:58.539Z,4.36
2018-02-01T05:36:31.023Z,4.32
2018-02-01T05:39:03.524Z,4.26
2018-02-01T05:41:36.020Z,4.22
2018-02-01T05:44:08.534Z,4.16
2018-02-01T05:46:41.010Z,4.40
2018-02-01T05:49:13.518Z,4.25
2018-02-01T05:51:46.123Z,4.28
2018-02-01T05:54:18.632Z,4.45
2018-02-01T05:56:51.125Z,4.13
2018-02-01T05:59:23.632Z,4.22
2018-02-01T06:01:57.063Z,4.09
2018-02-01T06:04:29.564Z,4.20
2018-02-01T06:07:02.055Z,4.34
2018-02-01T06:09:34.574Z,4.35
2018-02-01T06:12:07.068Z,4.45
2018-02-01T06:14:39.562Z,4.31
2018-02-01T06:17:12.078Z,4.32
2018-02-01T06:19:44.588Z,4.31
2018-02-01T06:22:18.240Z,4.12
2018-02-01T06:24:50.768Z,4.37
2018-02-01T06:27:23.250Z,4.12
2018-02-01T06:29:55.907Z,4.26
2018-02-01T06:32:28.395Z,4.43
2018-02-01T06:35:00.911Z,4.50
2018-02-01T06:37:33.474Z,4.36
2018-02-01T06:40:05.962Z,4.45
2018-02-01T06:42:38.622Z,4.33
2018-02-01T06:45:11.103Z,4.34
2018-02-01T06:47:43.625Z,4.31
2018-02-01T06:50:16.120Z,4.43
2018-02-01T06:52:48.646Z,4.36
2018-02-01T06:55:21.453Z,4.36
2018-02-01T06:57:54.036Z,4.31
2018-02-01T07:00:27.422Z,4.32
2018-02-01T07:02:59.944Z,4.46
2018-02-01T07:05:32.508Z,4.35
2018-02-01T07:08:05.031Z,4.13
2018-02-01T07:10:37.538Z,4.34
2018-02-01T07:13:10.054Z,4.28
2018-02-01T07:15:42.540Z,4.00
2018-02-01T07:18:15.053Z,4.05
2018-02-01T07:20:47.558Z,4.33
2018-02-01T07:23:20.064Z,4.30
2018-02-01T07:25:52.551Z,4.46
2018-02-01T07:28:26.669Z,4.50
2018-02-01T07:30:59.160Z,4.37
2018-02-01T07:33:31.670Z,4.55
2018-02-01T07:36:04.161Z,4.67
2018-02-01T07:38:36.725Z,4.74
2018-02-01T07:41:09.216Z,4.76
2018-02-01T07:43:41.729Z,4.75
2018-02-01T07:46:14.726Z,4.58
2018-02-01T07:48:47.247Z,4.51
2018-02-01T07:51:19.726Z,4.67
2018-02-01T07:53:52.238Z,4.51
2018-02-01T07:56:24.741Z,4.63
2018-02-01T07:58:58.451Z,4.68
2018-02-01T08:01:30.938Z,4.52
2018-02-01T08:04:03.443Z,4.71
2018-02-01T08:06:35.936Z,4.73
2018-02-01T08:09:08.441Z,4.86
2018-02-01T08:11:40.924Z,4.89
2018-02-01T08:14:13.467Z,5.09
2018-02-01T08:16:46.032Z,4.97
2018-02-01T08:19:19.092Z,4.95
2018-02-01T08:21:51.581Z,5.03
2018-02-01T08:24:24.096Z,4.94
2018-02-01T08:26:57.551Z,4.65
2018-02-01T08:29:30.140Z,4.82
2018-02-01T08:32:02.663Z,5.00
2018-02-01T08:34:35.296Z,5.03
2018-02-01T08:37:07.784Z,5.10
2018-02-01T08:39:40.294Z,5.10
2018-02-01T08:42:12.782Z,5.26
2018-02-01T08:44:45.399Z,5.49
2018-02-01T08:47:17.881Z,5.37
2018-02-01T08:49:50.391Z,5.60
2018-02-01T08:52:22.887Z,5.35
2018-02-01T08:54:55.429Z,5.42
2018-02-01T08:57:27.957Z,5.29
2018-02-01T09:00:00.471Z,5.49
2018-02-01T09:02:32.983Z,5.64
2018-02-01T09:05:05.579Z,5.65
2018-02-01T09:07:38.082Z,5.65
2018-02-01T09:10:10.624Z,5.72
2018-02-01T09:12:43.133Z,5.49
2018-02-01T09:15:15.749Z,5.69
2018-02-01T09:17:48.252Z,6.01
2018-02-01T09:20:20.775Z,6.02
2018-02-01T09:22:54.071Z,5.84
2018-02-01T09:25:26.589Z,5.88
2018-02-01T09:27:59.088Z,6.09
2018-02-01T09:30:31.604Z,6.14
2018-02-01T09:33:04.103Z,6.23
2018-02-01T09:35:36.634Z,6.08
2018-02-01T09:38:09.132Z,6.19
2018-02-01T09:40:41.645Z,5.97
2018-02-01T09:43:14.122Z,5.96
2018-02-01T09:45:46.665Z,6.10
2018-02-01T09:48:19.175Z,6.04
2018-02-01T09:50:51.683Z,6.16
2018-02-01T09:53:24.186Z,6.37
2018-02-01T09:55:57.500Z,6.40
2018-02-01T09:58:30.028Z,6.39
2018-02-01T10:01:02.539Z,6.54
2018-02-01T10:03:35.060Z,6.11
2018-02-01T10:06:07.560Z,6.38
2018-02-01T10:08:40.096Z,6.29
2018-02-01T10:11:12.590Z,6.36
2018-02-01T10:13:45.131Z,6.47
2018-02-01T10:16:17.677Z,6.59
2018-02-01T10:18:50.238Z,6.79
2018-02-01T10:21:22.714Z,6.49
2018-02-01T10:23:55.482Z,6.71
2018-02-01T10:26:27.975Z,6.77
2018-02-01T10:29:00.752Z,6.72
2018-02-01T10:31:33.248Z,6.49
2018-02-01T10:34:06.773Z,6.57
2018-02-01T10:36:39.706Z,6.98
2018-02-01T10:39:12.217Z,6.87
2018-02-01T10:41:44.741Z,6.81
2018-02-01T10:44:18.515Z,7.09
2018-02-01T10:46:51.193Z,7.27
2018-02-01T10:49:23.814Z,7.24
2018-02-01T10:51:57.735Z,7.16
2018-02-01T10:54:30.275Z,7.07
2018-02-01T10:57:02.812Z,7.05
2018-02-01T10:59:35.335Z,7.24
2018-02-01T11:02:07.851Z,7.07
2018-02-01T11:04:40.373Z,7.19
2018-02-01T11:07:12.860Z,7.02
2018-02-01T11:09:45.375Z,6.95
2018-02-01T11:12:17.865Z,6.88
2018-02-01T11:14:50.389Z,7.04
2018-02-01T11:17:22.913Z,7.18
2018-02-01T11:19:56.417Z,7.21
2018-02-01T11:22:28.909Z,7.27
2018-02-01T11:25:01.509Z,7.23
2018-02-01T11:27:34.075Z,7.48
2018-02-01T11:30:06.584Z,7.31
2018-02-01T11:32:39.082Z,7.54
2018-02-01T11:35:11.610Z,7.20
2018-02-01T11:37:44.119Z,7.32
2018-02-01T11:40:16.629Z,7.62
2018-02-01T11:42:49.183Z,7.33
2018-02-01T11:45:21.691Z,7.47
2018-02-01T11:47:54.229Z,7.60
2018-02-01T11:50:27.254Z,7.52
2018-02-01T11:52:59.740Z,7.77
2018-02-01T11:55:32.272Z,7.83
2018-02-01T11:58:04.756Z,8.04
2018-02-01T12:00:37.276Z,8.03
2018-02-01T12:03:09.785Z,7.77
2018-02-01T12:05:42.301Z,8.05
2018-02-01T12:08:14.791Z,8.04
2018-02-01T12:10:47.294Z,7.86
2018-02-01T12:13:19.788Z,7.67
2018-02-01T12:15:52.291Z,7.91
2018-02-01T12:18:24.780Z,7.88
2018-02-01T12:20:58.011Z,7.67
2018-02-01T12:23:30.507Z,7.37
2018-02-01T12:26:03.025Z,7.76
2018-02-01T12:28:35.512Z,7.85
2018-02-01T12:31:08.046Z,7.55
2018-02-01T12:33:40.539Z,7.81
2018-02-01T12:36:13.045Z,7.68
2018-02-01T12:38:45.532Z,7.48
2018-02-01T12:41:18.046Z,7.70
2018-02-01T12:43:50.536Z,7.73
2018-02-01T12:46:23.035Z,7.64
2018-02-01T12:48:57.024Z,7.82
2018-02-01T12:51:29.540Z,7.81
2018-02-01T12:54:02.031Z,7.76
2018-02-01T12:56:35.490Z,7.47
2018-02-01T12:59:07.982Z,7.70
2018-02-01T13:01:40.537Z,7.94
2018-02-01T13:04:13.047Z,7.89
2018-02-01T13:06:45.562Z,8.09
2018-02-01T13:09:18.052Z,8.08
2018-02-01T13:11:50.637Z,8.11
2018-02-01T13:14:23.172Z,7.82
2018-02-01T13:16:55.701Z,7.76
2018-02-01T13:19:28.863Z,8.02
2018-02-01T13:22:01.437Z,8.28
2018-02-01T13:24:35.033Z,8.18
2018-02-01T13:27:07.651Z,8.32
2018-02-01T13:29:40.176Z,8.33
2018-02-01T13:32:12.775Z,8.40
2018-02-01T13:34:45.349Z,8.19
2018-02-01T13:37:17.928Z,7.63
2018-02-01T13:39:50.420Z,7.78
2018-02-01T13:42:23.004Z,8.21
2018-02-01T13:44:55.530Z,8.33
2018-02-01T13:47:28.426Z,8.09
2018-02-01T13:50:00.927Z,8.35
2018-02-01T13:52:33.442Z,8.40
2018-02-01T15:20:08.034Z,5.71
2018-02-01T15:22:41.399Z,5.69
2018-02-01T15:25:13.904Z,5.38
2018-02-01T15:27:46.411Z,5.39
2018-02-01T15:30:18.907Z,5.39
2018-02-01T15:32:51.434Z,5.32
2018-02-01T15:35:23.925Z,5.55
2018-02-01T15:37:57.096Z,5.79
2018-02-01T15:40:29.610Z,5.63
2018-02-01T15:43:02.134Z,5.89
2018-02-01T15:45:34.647Z,5.94
2018-02-01T15:48:07.177Z,5.79
2018-02-01T15:50:39.684Z,6.03
2018-02-01T15:53:12.207Z,5.92
2018-02-01T15:55:44.739Z,5.94
2018-02-01T15:58:17.240Z,5.74
2018-02-01T16:00:49.791Z,6.00
2018-02-01T16:03:22.298Z,5.66
2018-02-01T16:05:54.815Z,5.87
2018-02-01T16:08:27.326Z,5.98
2018-02-01T16:10:59.836Z,5.81
2018-02-01T16:13:32.331Z,5.82
2018-02-01T16:16:04.866Z,5.81
2018-02-01T16:18:37.378Z,5.75
2018-02-01T16:21:10.303Z,5.94
2018-02-01T16:23:42.795Z,5.85
2018-02-01T16:26:15.321Z,5.88
2018-02-01T16:28:47.847Z,5.95
2018-02-01T16:31:20.382Z,5.86
2018-02-01T16:33:52.880Z,5.76
2018-02-01T16:36:25.405Z,5.64
2018-02-01T16:38:58.737Z,5.64
2018-02-01T16:41:31.279Z,5.69
2018-02-01T16:44:03.775Z,5.62
2018-02-01T16:46:36.287Z,5.64
2018-02-01T16:49:08.789Z,5.55
2018-02-01T16:51:41.343Z,5.53
2018-02-01T16:54:13.849Z,5.47
2018-02-01T16:56:46.378Z,5.46
2018-02-01T16:59:18.878Z,5.46
2018-02-01T17:01:51.413Z,5.46
2018-02-01T17:04:23.923Z,5.42
2018-02-01T17:06:57.036Z,5.32
2018-02-01T17:09:29.534Z,5.37
2018-02-01T17:12:02.060Z,5.32
2018-02-01T17:14:34.548Z,5.18
2018-02-01T17:17:07.113Z,5.24
2018-02-01T17:19:39.616Z,5.23
2018-02-01T17:22:12.171Z,5.20
2018-02-01T17:24:44.647Z,5.28
2018-02-01T17:27:17.172Z,5.37
2018-02-01T17:29:49.663Z,5.47
2018-02-01T17:32:22.188Z,5.55
2018-02-01T17:34:54.686Z,5.56
2018-02-01T17:37:27.218Z,5.63
2018-02-01T17:39:59.732Z,5.78
2018-02-01T17:42:32.255Z,5.71
2018-02-01T17:45:04.752Z,5.73
2018-02-01T17:47:37.271Z,5.83
2018-02-01T17:50:16.152Z,5.93
2018-02-01T17:52:48.723Z,5.93
2018-02-01T17:55:21.245Z,5.84
2018-02-01T17:57:53.769Z,5.85
2018-02-01T18:00:26.271Z,5.92
2018-02-01T18:02:58.801Z,5.82
2018-02-01T18:05:31.324Z,6.01
2018-02-01T18:08:03.850Z,5.99
2018-02-01T18:10:36.357Z,5.97
2018-02-01T18:13:08.885Z,6.15
2018-02-01T18:15:41.574Z,6.23
2018-02-01T18:18:14.124Z,6.37
2018-02-01T18:20:46.636Z,6.30
2018-02-01T18:23:19.157Z,6.22
2018-02-01T18:25:51.661Z,6.29
2018-02-01T18:28:24.252Z,6.27
2018-02-01T18:30:56.821Z,6.41
2018-02-01T18:33:29.329Z,6.44
2018-02-01T18:36:01.902Z,6.60
2018-02-01T18:38:34.482Z,6.56
2018-02-01T18:41:06.991Z,6.52
2018-02-01T18:43:39.554Z,6.56
2018-02-01T18:46:12.060Z,6.57
2018-02-01T18:48:44.571Z,6.71
2018-02-01T18:51:17.276Z,6.55
2018-02-01T18:53:49.799Z,6.53
2018-02-01T18:56:23.127Z,6.57
2018-02-01T18:58:59.378Z,6.68
2018-02-01T19:01:31.892Z,6.71
2018-02-01T19:04:04.421Z,6.68
2018-02-01T19:06:36.925Z,6.75
2018-02-01T19:09:09.454Z,6.79
2018-02-01T19:11:41.939Z,6.71
2018-02-01T19:14:14.454Z,6.49
2018-02-01T19:16:46.983Z,6.31
2018-02-01T19:19:19.503Z,6.30
2018-02-01T19:21:52.032Z,6.49
2018-02-01T19:24:24.556Z,6.43
2018-02-01T19:26:57.988Z,6.27
2018-02-01T19:29:30.551Z,6.29
2018-02-01T19:32:03.061Z,6.14
2018-02-01T19:34:35.554Z,6.37
2018-02-01T19:37:08.094Z,6.44
2018-02-01T19:39:43.598Z,6.39
2018-02-01T19:42:16.194Z,6.42
2018-02-01T19:44:48.695Z,6.49
2018-02-01T19:47:21.222Z,6.51
2018-02-01T19:49:53.727Z,6.58
2018-02-01T19:52:28.346Z,6.41
2018-02-01T19:55:00.854Z,6.49
2018-02-01T19:57:33.387Z,6.52
2018-02-01T20:00:05.888Z,6.33
2018-02-01T20:02:38.395Z,6.30
2018-02-01T20:05:10.891Z,6.57
2018-02-01T20:07:43.418Z,6.51
2018-02-01T20:10:15.929Z,6.63
2018-02-01T20:12:48.444Z,6.74
2018-02-01T20:15:20.970Z,6.44
2018-02-01T20:17:53.626Z,6.50
2018-02-01T20:20:26.774Z,6.37
2018-02-01T20:22:59.278Z,6.17
2018-02-01T20:25:31.773Z,6.10
2018-02-01T20:28:04.294Z,6.15
2018-02-01T20:30:37.126Z,6.03
2018-02-01T20:33:10.091Z,5.86
2018-02-01T20:35:42.741Z,6.04
2018-02-01T20:38:16.172Z,6.08
2018-02-01T20:40:48.676Z,5.91
2018-02-01T20:43:21.186Z,6.01
2018-02-01T20:45:53.693Z,5.85
2018-02-01T20:48:26.284Z,5.78
2018-02-01T20:50:58.878Z,5.74
2018-02-01T20:53:31.436Z,5.80
2018-02-01T20:56:03.960Z,5.72
2018-02-01T20:58:36.477Z,5.72
2018-02-01T21:01:09.011Z,5.81
2018-02-01T21:03:41.538Z,5.78
2018-02-01T21:06:14.045Z,5.69
2018-02-01T21:08:46.592Z,5.65
2018-02-01T21:11:19.140Z,5.65
2018-02-01T21:13:51.679Z,5.74
2018-02-01T21:16:24.175Z,5.82
2018-02-01T21:18:56.694Z,5.68
2018-02-01T21:21:29.193Z,5.78
2018-02-01T21:24:02.916Z,5.73
2018-02-01T21:26:35.486Z,5.91
2018-02-01T21:29:08.024Z,5.93
2018-02-01T21:31:40.527Z,5.92
2018-02-01T21:34:13.046Z,5.94
2018-02-01T21:36:45.556Z,5.91
2018-02-01T21:39:18.073Z,5.72
2018-02-01T21:41:50.589Z,5.76
2018-02-01T21:44:23.093Z,5.73
2018-02-01T21:46:55.751Z,5.79
2018-02-01T21:49:28.257Z,5.50
2018-02-01T21:52:00.758Z,5.88
2018-02-01T21:54:33.278Z,6.02
2018-02-01T21:57:05.778Z,5.99
2018-02-01T21:59:38.315Z,6.06
2018-02-01T22:02:10.813Z,6.17
2018-02-01T22:04:43.349Z,6.28
2018-02-01T22:07:15.848Z,5.90
2018-02-01T22:09:48.375Z,5.96
2018-02-01T22:12:20.878Z,5.98
2018-02-01T22:14:53.392Z,5.96
2018-02-01T22:17:25.883Z,5.94
2018-02-01T22:19:58.406Z,6.01
2018-02-01T22:22:37.811Z,6.09
2018-02-01T22:25:10.340Z,5.90
2018-02-01T22:27:42.835Z,5.91
2018-02-01T22:30:15.348Z,6.18
2018-02-01T22:32:47.850Z,5.95
2018-02-01T22:35:20.375Z,5.90
2018-02-01T22:37:52.934Z,5.83
2018-02-01T22:40:25.739Z,6.03
2018-02-01T22:42:58.223Z,5.95
2018-02-01T22:45:30.738Z,5.95
2018-02-01T22:48:03.256Z,5.67
2018-02-01T22:50:35.794Z,5.55
2018-02-01T22:53:08.305Z,5.43
2018-02-01T22:55:40.813Z,5.72
2018-02-01T22:58:13.319Z,5.72
2018-02-01T23:00:45.823Z,4.72
2018-02-01T23:03:18.333Z,5.06
2018-02-01T23:05:50.829Z,5.53
2018-02-01T23:08:23.357Z,5.38
2018-02-01T23:10:55.854Z,4.98
2018-02-01T23:13:28.371Z,4.79
2018-02-01T23:16:00.878Z,5.08
2018-02-01T23:18:33.405Z,5.18
2018-02-01T23:21:05.894Z,5.35
2018-02-01T23:23:38.416Z,5.08
2018-02-01T23:26:10.938Z,5.07
2018-02-01T23:28:43.466Z,5.08
2018-02-01T23:31:16.203Z,5.00
2018-02-01T23:33:48.730Z,4.98
2018-02-01T23:36:21.243Z,4.81
2018-02-01T23:38:53.769Z,4.96
2018-02-01T23:41:26.376Z,5.24
2018-02-01T23:43:58.892Z,5.09
2018-02-01T23:46:31.393Z,5.23
2018-02-01T23:49:03.896Z,4.82
2018-02-01T23:51:36.385Z,4.85
2018-02-01T23:54:08.910Z,5.07
2018-02-01T23:56:41.403Z,5.22
2018-02-01T23:59:13.928Z,5.38
